sensor_id;sensor_type;location;lat;lon;timestamp;P1;durP1;ratioP1;P2;durP2;ratioP2
43435;SDS011;36399;51.444;-2.018;2022-11-14T00:00:35;50.53;;;19.60;;
43435;SDS011;36399;51.444;-2.018;2022-11-14T00:03:02;46.33;;;19.73;;
43435;SDS011;36399;51.444;-2.018;2022-11-14T00:05:29;51.53;;;20.53;;
43435;SDS011;36399;51.444;-2.018;2022-11-14T00:07:55;50.33;;;21.80;;
43435;SDS011;36399;51.444;-2.018;2022-11-14T00:10:22;49.67;;;22.33;;
43435;SDS011;36399;51.444;-2.018;2022-11-14T00:12:48;48.80;;;20.60;;
43435;SDS011;36399;51.444;-2.018;2022-11-14T00:15:15;52.73;;;21.57;;
43435;SDS011;36399;51.444;-2.018;2022-11-14T00:17:41;49.47;;;21.57;;
43435;SDS011;36399;51.444;-2.018;2022-11-14T00:20:08;47.37;;;20.63;;
43435;SDS011;36399;51.444;-2.018;2022-11-14T00:22:36;41.90;;;19.73;;
43435;SDS011;36399;51.444;-2.018;2022-11-14T00:25:02;48.73;;;21.57;;
43435;SDS011;36399;51.444;-2.018;2022-11-14T00:27:29;47.57;;;19.90;;
43435;SDS011;36399;51.444;-2.018;2022-11-14T00:29:55;44.83;;;19.47;;
43435;SDS011;36399;51.444;-2.018;2022-11-14T00:32:21;45.47;;;19.57;;
43435;SDS011;36399;51.444;-2.018;2022-11-14T00:34:47;49.97;;;20.50;;
43435;SDS011;36399;51.444;-2.018;2022-11-14T00:37:14;43.80;;;19.27;;
43435;SDS011;36399;51.444;-2.018;2022-11-14T00:39:40;42.97;;;18.17;;
43435;SDS011;36399;51.444;-2.018;2022-11-14T00:42:06;47.47;;;20.07;;
43435;SDS011;36399;51.444;-2.018;2022-11-14T00:44:32;41.30;;;21.57;;
43435;SDS011;36399;51.444;-2.018;2022-11-14T00:46:58;43.27;;;20.33;;
43435;SDS011;36399;51.444;-2.018;2022-11-14T00:49:24;39.50;;;19.40;;
43435;SDS011;36399;51.444;-2.018;2022-11-14T00:51:50;47.87;;;19.37;;
43435;SDS011;36399;51.444;-2.018;2022-11-14T00:54:16;40.77;;;20.20;;
43435;SDS011;36399;51.444;-2.018;2022-11-14T00:56:42;39.83;;;19.67;;
43435;SDS011;36399;51.444;-2.018;2022-11-14T00:59:08;49.83;;;21.90;;
43435;SDS011;36399;51.444;-2.018;2022-11-14T01:01:34;45.23;;;18.73;;
43435;SDS011;36399;51.444;-2.018;2022-11-14T01:04:00;44.73;;;19.87;;
43435;SDS011;36399;51.444;-2.018;2022-11-14T01:06:26;44.77;;;20.40;;
43435;SDS011;36399;51.444;-2.018;2022-11-14T01:08:52;40.40;;;18.13;;
43435;SDS011;36399;51.444;-2.018;2022-11-14T01:11:19;41.10;;;20.13;;
43435;SDS011;36399;51.444;-2.018;2022-11-14T01:13:46;41.60;;;19.87;;
43435;SDS011;36399;51.444;-2.018;2022-11-14T01:16:12;48.13;;;20.80;;
43435;SDS011;36399;51.444;-2.018;2022-11-14T01:18:38;46.70;;;19.27;;
43435;SDS011;36399;51.444;-2.018;2022-11-14T01:21:07;42.90;;;20.53;;
43435;SDS011;36399;51.444;-2.018;2022-11-14T01:23:35;43.83;;;20.27;;
43435;SDS011;36399;51.444;-2.018;2022-11-14T01:26:03;41.80;;;20.50;;
43435;SDS011;36399;51.444;-2.018;2022-11-14T01:28:34;40.53;;;19.30;;
43435;SDS011;36399;51.444;-2.018;2022-11-14T01:31:10;43.30;;;19.53;;
43435;SDS011;36399;51.444;-2.018;2022-11-14T01:33:36;43.63;;;20.13;;
43435;SDS011;36399;51.444;-2.018;2022-11-14T01:36:02;52.07;;;20.43;;
43435;SDS011;36399;51.444;-2.018;2022-11-14T01:38:28;47.70;;;19.93;;
43435;SDS011;36399;51.444;-2.018;2022-11-14T01:40:54;49.03;;;20.23;;
43435;SDS011;36399;51.444;-2.018;2022-11-14T01:43:28;50.60;;;19.87;;
43435;SDS011;36399;51.444;-2.018;2022-11-14T01:48:39;55.30;;;22.47;;
43435;SDS011;36399;51.444;-2.018;2022-11-14T01:53:43;49.97;;;21.33;;
43435;SDS011;36399;51.444;-2.018;2022-11-14T01:56:13;45.50;;;19.77;;
43435;SDS011;36399;51.444;-2.018;2022-11-14T01:58:42;51.23;;;23.33;;
43435;SDS011;36399;51.444;-2.018;2022-11-14T02:01:11;56.80;;;21.63;;
43435;SDS011;36399;51.444;-2.018;2022-11-14T02:03:38;46.20;;;20.20;;
43435;SDS011;36399;51.444;-2.018;2022-11-14T02:06:07;53.67;;;20.80;;
43435;SDS011;36399;51.444;-2.018;2022-11-14T02:08:39;51.13;;;20.50;;
43435;SDS011;36399;51.444;-2.018;2022-11-14T02:11:08;48.47;;;21.80;;
43435;SDS011;36399;51.444;-2.018;2022-11-14T02:13:35;59.27;;;22.17;;
43435;SDS011;36399;51.444;-2.018;2022-11-14T02:16:01;56.30;;;23.70;;
43435;SDS011;36399;51.444;-2.018;2022-11-14T02:18:27;51.40;;;22.57;;
43435;SDS011;36399;51.444;-2.018;2022-11-14T02:20:53;54.23;;;22.53;;
43435;SDS011;36399;51.444;-2.018;2022-11-14T02:23:26;49.27;;;21.97;;
43435;SDS011;36399;51.444;-2.018;2022-11-14T02:25:53;50.63;;;20.47;;
43435;SDS011;36399;51.444;-2.018;2022-11-14T02:28:20;56.77;;;22.27;;
43435;SDS011;36399;51.444;-2.018;2022-11-14T02:30:46;59.20;;;21.63;;
43435;SDS011;36399;51.444;-2.018;2022-11-14T02:33:13;56.90;;;22.07;;
43435;SDS011;36399;51.444;-2.018;2022-11-14T02:35:39;56.00;;;20.60;;
43435;SDS011;36399;51.444;-2.018;2022-11-14T02:38:05;57.30;;;22.27;;
43435;SDS011;36399;51.444;-2.018;2022-11-14T02:40:31;57.73;;;22.73;;
43435;SDS011;36399;51.444;-2.018;2022-11-14T02:42:57;56.33;;;21.60;;
43435;SDS011;36399;51.444;-2.018;2022-11-14T02:45:24;48.97;;;20.20;;
43435;SDS011;36399;51.444;-2.018;2022-11-14T02:47:50;57.10;;;20.63;;
43435;SDS011;36399;51.444;-2.018;2022-11-14T02:50:16;55.50;;;20.50;;
43435;SDS011;36399;51.444;-2.018;2022-11-14T02:52:42;57.40;;;21.83;;
43435;SDS011;36399;51.444;-2.018;2022-11-14T02:55:08;48.37;;;19.60;;
43435;SDS011;36399;51.444;-2.018;2022-11-14T02:57:35;46.67;;;20.93;;
43435;SDS011;36399;51.444;-2.018;2022-11-14T03:00:01;55.40;;;21.83;;
43435;SDS011;36399;51.444;-2.018;2022-11-14T03:02:27;61.93;;;23.00;;
43435;SDS011;36399;51.444;-2.018;2022-11-14T03:04:53;46.67;;;20.30;;
43435;SDS011;36399;51.444;-2.018;2022-11-14T03:07:19;47.73;;;19.13;;
43435;SDS011;36399;51.444;-2.018;2022-11-14T03:09:45;49.73;;;21.23;;
43435;SDS011;36399;51.444;-2.018;2022-11-14T03:12:12;55.63;;;20.23;;
43435;SDS011;36399;51.444;-2.018;2022-11-14T03:14:40;56.57;;;20.73;;
43435;SDS011;36399;51.444;-2.018;2022-11-14T03:17:06;48.10;;;20.37;;
43435;SDS011;36399;51.444;-2.018;2022-11-14T03:19:33;52.87;;;20.40;;
43435;SDS011;36399;51.444;-2.018;2022-11-14T03:21:58;47.70;;;18.77;;
43435;SDS011;36399;51.444;-2.018;2022-11-14T03:24:24;51.57;;;21.00;;
43435;SDS011;36399;51.444;-2.018;2022-11-14T03:26:50;54.07;;;20.03;;
43435;SDS011;36399;51.444;-2.018;2022-11-14T03:29:16;55.40;;;20.33;;
43435;SDS011;36399;51.444;-2.018;2022-11-14T03:31:42;54.50;;;20.70;;
43435;SDS011;36399;51.444;-2.018;2022-11-14T03:34:09;53.23;;;20.03;;
43435;SDS011;36399;51.444;-2.018;2022-11-14T03:36:35;46.23;;;19.70;;
43435;SDS011;36399;51.444;-2.018;2022-11-14T03:39:02;54.73;;;20.07;;
43435;SDS011;36399;51.444;-2.018;2022-11-14T03:41:28;49.53;;;19.10;;
43435;SDS011;36399;51.444;-2.018;2022-11-14T03:43:55;49.30;;;21.23;;
43435;SDS011;36399;51.444;-2.018;2022-11-14T03:46:21;54.60;;;21.80;;
43435;SDS011;36399;51.444;-2.018;2022-11-14T03:48:47;55.80;;;20.80;;
43435;SDS011;36399;51.444;-2.018;2022-11-14T03:51:13;53.63;;;21.27;;
43435;SDS011;36399;51.444;-2.018;2022-11-14T03:53:39;50.00;;;20.17;;
43435;SDS011;36399;51.444;-2.018;2022-11-14T03:56:05;51.07;;;21.50;;
43435;SDS011;36399;51.444;-2.018;2022-11-14T03:58:31;52.17;;;21.57;;
43435;SDS011;36399;51.444;-2.018;2022-11-14T04:00:58;52.30;;;19.80;;
43435;SDS011;36399;51.444;-2.018;2022-11-14T04:03:24;43.63;;;18.27;;
43435;SDS011;36399;51.444;-2.018;2022-11-14T04:05:50;45.70;;;18.37;;
43435;SDS011;36399;51.444;-2.018;2022-11-14T04:08:17;44.80;;;20.13;;
43435;SDS011;36399;51.444;-2.018;2022-11-14T04:10:45;45.27;;;19.23;;
43435;SDS011;36399;51.444;-2.018;2022-11-14T04:13:12;39.63;;;16.90;;
43435;SDS011;36399;51.444;-2.018;2022-11-14T04:15:38;37.57;;;17.77;;
43435;SDS011;36399;51.444;-2.018;2022-11-14T04:18:05;42.57;;;19.40;;
43435;SDS011;36399;51.444;-2.018;2022-11-14T04:20:30;42.53;;;18.40;;
43435;SDS011;36399;51.444;-2.018;2022-11-14T04:22:56;42.83;;;18.63;;
43435;SDS011;36399;51.444;-2.018;2022-11-14T04:25:22;34.23;;;17.13;;
43435;SDS011;36399;51.444;-2.018;2022-11-14T04:27:48;40.30;;;18.30;;
43435;SDS011;36399;51.444;-2.018;2022-11-14T04:30:14;39.13;;;17.87;;
43435;SDS011;36399;51.444;-2.018;2022-11-14T04:32:40;35.73;;;17.13;;
43435;SDS011;36399;51.444;-2.018;2022-11-14T04:35:06;36.07;;;18.03;;
43435;SDS011;36399;51.444;-2.018;2022-11-14T04:37:33;39.13;;;17.23;;
43435;SDS011;36399;51.444;-2.018;2022-11-14T04:39:58;40.87;;;17.83;;
43435;SDS011;36399;51.444;-2.018;2022-11-14T04:42:27;36.50;;;17.30;;
43435;SDS011;36399;51.444;-2.018;2022-11-14T04:44:52;37.77;;;17.70;;
43435;SDS011;36399;51.444;-2.018;2022-11-14T04:47:19;43.70;;;18.73;;
43435;SDS011;36399;51.444;-2.018;2022-11-14T04:49:45;41.20;;;17.67;;
43435;SDS011;36399;51.444;-2.018;2022-11-14T04:52:11;42.97;;;19.00;;
43435;SDS011;36399;51.444;-2.018;2022-11-14T04:54:37;40.43;;;18.93;;
43435;SDS011;36399;51.444;-2.018;2022-11-14T04:57:03;38.07;;;17.87;;
43435;SDS011;36399;51.444;-2.018;2022-11-14T04:59:29;39.67;;;17.23;;
43435;SDS011;36399;51.444;-2.018;2022-11-14T05:01:54;42.07;;;18.50;;
43435;SDS011;36399;51.444;-2.018;2022-11-14T05:04:20;41.30;;;18.77;;
43435;SDS011;36399;51.444;-2.018;2022-11-14T05:06:46;39.60;;;17.50;;
43435;SDS011;36399;51.444;-2.018;2022-11-14T05:09:12;41.93;;;18.80;;
43435;SDS011;36399;51.444;-2.018;2022-11-14T05:11:38;37.17;;;16.50;;
43435;SDS011;36399;51.444;-2.018;2022-11-14T05:14:04;34.70;;;16.47;;
43435;SDS011;36399;51.444;-2.018;2022-11-14T05:16:30;38.83;;;17.17;;
43435;SDS011;36399;51.444;-2.018;2022-11-14T05:18:56;40.30;;;18.70;;
43435;SDS011;36399;51.444;-2.018;2022-11-14T05:21:22;45.17;;;20.73;;
43435;SDS011;36399;51.444;-2.018;2022-11-14T05:23:48;45.60;;;20.07;;
43435;SDS011;36399;51.444;-2.018;2022-11-14T05:26:15;39.67;;;19.03;;
43435;SDS011;36399;51.444;-2.018;2022-11-14T05:28:41;41.33;;;18.67;;
43435;SDS011;36399;51.444;-2.018;2022-11-14T05:31:08;44.13;;;18.93;;
43435;SDS011;36399;51.444;-2.018;2022-11-14T05:33:38;38.33;;;16.17;;
43435;SDS011;36399;51.444;-2.018;2022-11-14T05:36:04;39.03;;;16.73;;
43435;SDS011;36399;51.444;-2.018;2022-11-14T05:38:32;43.33;;;19.70;;
43435;SDS011;36399;51.444;-2.018;2022-11-14T05:40:59;43.63;;;18.37;;
43435;SDS011;36399;51.444;-2.018;2022-11-14T05:43:30;38.33;;;17.87;;
43435;SDS011;36399;51.444;-2.018;2022-11-14T05:46:03;43.33;;;16.97;;
43435;SDS011;36399;51.444;-2.018;2022-11-14T05:48:31;41.23;;;17.17;;
43435;SDS011;36399;51.444;-2.018;2022-11-14T05:50:58;41.83;;;18.60;;
43435;SDS011;36399;51.444;-2.018;2022-11-14T05:53:25;39.93;;;17.57;;
43435;SDS011;36399;51.444;-2.018;2022-11-14T05:55:53;35.13;;;17.53;;
43435;SDS011;36399;51.444;-2.018;2022-11-14T05:58:20;31.97;;;15.50;;
43435;SDS011;36399;51.444;-2.018;2022-11-14T06:00:46;39.73;;;15.40;;
43435;SDS011;36399;51.444;-2.018;2022-11-14T06:03:12;35.87;;;16.13;;
43435;SDS011;36399;51.444;-2.018;2022-11-14T06:05:39;32.90;;;15.87;;
43435;SDS011;36399;51.444;-2.018;2022-11-14T06:08:06;37.87;;;17.10;;
43435;SDS011;36399;51.444;-2.018;2022-11-14T06:10:33;39.43;;;18.47;;
43435;SDS011;36399;51.444;-2.018;2022-11-14T06:13:00;39.43;;;17.07;;
43435;SDS011;36399;51.444;-2.018;2022-11-14T06:15:26;34.50;;;16.43;;
43435;SDS011;36399;51.444;-2.018;2022-11-14T06:17:52;40.10;;;17.40;;
43435;SDS011;36399;51.444;-2.018;2022-11-14T06:20:18;37.93;;;18.20;;
43435;SDS011;36399;51.444;-2.018;2022-11-14T06:22:45;34.80;;;16.63;;
43435;SDS011;36399;51.444;-2.018;2022-11-14T06:25:11;37.63;;;17.00;;
43435;SDS011;36399;51.444;-2.018;2022-11-14T06:27:37;36.03;;;17.03;;
43435;SDS011;36399;51.444;-2.018;2022-11-14T06:30:03;35.63;;;16.63;;
43435;SDS011;36399;51.444;-2.018;2022-11-14T06:32:29;36.93;;;18.97;;
43435;SDS011;36399;51.444;-2.018;2022-11-14T06:34:55;32.30;;;16.47;;
43435;SDS011;36399;51.444;-2.018;2022-11-14T06:37:21;38.03;;;17.90;;
43435;SDS011;36399;51.444;-2.018;2022-11-14T06:39:47;38.33;;;16.93;;
43435;SDS011;36399;51.444;-2.018;2022-11-14T06:42:14;37.33;;;19.70;;
43435;SDS011;36399;51.444;-2.018;2022-11-14T06:44:40;38.70;;;17.33;;
43435;SDS011;36399;51.444;-2.018;2022-11-14T06:47:06;37.03;;;17.97;;
43435;SDS011;36399;51.444;-2.018;2022-11-14T06:49:32;36.57;;;17.00;;
43435;SDS011;36399;51.444;-2.018;2022-11-14T06:51:58;36.90;;;17.07;;
43435;SDS011;36399;51.444;-2.018;2022-11-14T06:54:24;35.23;;;16.60;;
43435;SDS011;36399;51.444;-2.018;2022-11-14T06:56:50;32.23;;;16.43;;
43435;SDS011;36399;51.444;-2.018;2022-11-14T06:59:16;38.90;;;16.73;;
43435;SDS011;36399;51.444;-2.018;2022-11-14T07:01:42;30.80;;;16.40;;
43435;SDS011;36399;51.444;-2.018;2022-11-14T07:04:08;29.63;;;14.53;;
43435;SDS011;36399;51.444;-2.018;2022-11-14T07:06:34;31.50;;;14.50;;
43435;SDS011;36399;51.444;-2.018;2022-11-14T07:09:00;35.80;;;17.23;;
43435;SDS011;36399;51.444;-2.018;2022-11-14T07:11:26;30.23;;;14.50;;
43435;SDS011;36399;51.444;-2.018;2022-11-14T07:13:58;32.30;;;14.60;;
43435;SDS011;36399;51.444;-2.018;2022-11-14T07:16:25;28.77;;;14.83;;
43435;SDS011;36399;51.444;-2.018;2022-11-14T07:18:58;31.10;;;13.87;;
43435;SDS011;36399;51.444;-2.018;2022-11-14T07:21:25;37.57;;;15.20;;
43435;SDS011;36399;51.444;-2.018;2022-11-14T07:23:52;38.60;;;14.27;;
43435;SDS011;36399;51.444;-2.018;2022-11-14T07:26:18;33.77;;;15.77;;
43435;SDS011;36399;51.444;-2.018;2022-11-14T07:28:44;29.70;;;13.60;;
43435;SDS011;36399;51.444;-2.018;2022-11-14T07:31:11;31.30;;;15.67;;
43435;SDS011;36399;51.444;-2.018;2022-11-14T07:33:40;37.63;;;15.67;;
43435;SDS011;36399;51.444;-2.018;2022-11-14T07:36:07;31.90;;;13.83;;
43435;SDS011;36399;51.444;-2.018;2022-11-14T07:38:35;35.60;;;15.03;;
43435;SDS011;36399;51.444;-2.018;2022-11-14T07:43:32;38.83;;;17.17;;
43435;SDS011;36399;51.444;-2.018;2022-11-14T07:45:59;33.90;;;13.13;;
43435;SDS011;36399;51.444;-2.018;2022-11-14T07:48:26;32.70;;;13.80;;
43435;SDS011;36399;51.444;-2.018;2022-11-14T07:50:56;38.57;;;15.20;;
43435;SDS011;36399;51.444;-2.018;2022-11-14T07:53:26;30.17;;;15.02;;
43435;SDS011;36399;51.444;-2.018;2022-11-14T07:55:52;31.70;;;15.47;;
43435;SDS011;36399;51.444;-2.018;2022-11-14T07:58:19;26.03;;;12.57;;
43435;SDS011;36399;51.444;-2.018;2022-11-14T08:00:45;31.43;;;14.27;;
43435;SDS011;36399;51.444;-2.018;2022-11-14T08:03:11;30.33;;;13.53;;
43435;SDS011;36399;51.444;-2.018;2022-11-14T08:05:37;26.87;;;13.80;;
43435;SDS011;36399;51.444;-2.018;2022-11-14T08:08:03;27.60;;;12.77;;
43435;SDS011;36399;51.444;-2.018;2022-11-14T08:10:29;31.97;;;13.00;;
43435;SDS011;36399;51.444;-2.018;2022-11-14T08:12:56;29.37;;;13.20;;
43435;SDS011;36399;51.444;-2.018;2022-11-14T08:15:26;27.37;;;14.07;;
43435;SDS011;36399;51.444;-2.018;2022-11-14T08:17:56;25.70;;;12.03;;
43435;SDS011;36399;51.444;-2.018;2022-11-14T08:20:22;29.90;;;14.60;;
43435;SDS011;36399;51.444;-2.018;2022-11-14T08:22:48;23.47;;;12.77;;
43435;SDS011;36399;51.444;-2.018;2022-11-14T08:25:14;28.10;;;12.13;;
43435;SDS011;36399;51.444;-2.018;2022-11-14T08:27:40;27.47;;;12.60;;
43435;SDS011;36399;51.444;-2.018;2022-11-14T08:30:06;29.93;;;14.67;;
43435;SDS011;36399;51.444;-2.018;2022-11-14T08:32:33;29.20;;;13.40;;
43435;SDS011;36399;51.444;-2.018;2022-11-14T08:34:59;24.80;;;11.63;;
43435;SDS011;36399;51.444;-2.018;2022-11-14T08:37:25;24.97;;;12.63;;
43435;SDS011;36399;51.444;-2.018;2022-11-14T08:39:51;27.30;;;13.27;;
43435;SDS011;36399;51.444;-2.018;2022-11-14T08:42:17;31.03;;;12.80;;
43435;SDS011;36399;51.444;-2.018;2022-11-14T08:44:43;28.97;;;12.80;;
43435;SDS011;36399;51.444;-2.018;2022-11-14T08:47:09;27.47;;;12.83;;
43435;SDS011;36399;51.444;-2.018;2022-11-14T08:49:35;23.43;;;13.03;;
43435;SDS011;36399;51.444;-2.018;2022-11-14T08:52:00;27.17;;;12.60;;
43435;SDS011;36399;51.444;-2.018;2022-11-14T08:54:26;28.93;;;14.10;;
43435;SDS011;36399;51.444;-2.018;2022-11-14T08:56:53;28.93;;;13.17;;
43435;SDS011;36399;51.444;-2.018;2022-11-14T08:59:19;26.70;;;12.93;;
43435;SDS011;36399;51.444;-2.018;2022-11-14T09:01:45;26.80;;;13.10;;
43435;SDS011;36399;51.444;-2.018;2022-11-14T09:04:12;23.83;;;12.70;;
43435;SDS011;36399;51.444;-2.018;2022-11-14T09:06:38;27.83;;;13.60;;
43435;SDS011;36399;51.444;-2.018;2022-11-14T09:09:04;27.20;;;13.53;;
43435;SDS011;36399;51.444;-2.018;2022-11-14T09:11:30;25.60;;;13.20;;
43435;SDS011;36399;51.444;-2.018;2022-11-14T09:13:56;28.40;;;14.63;;
43435;SDS011;36399;51.444;-2.018;2022-11-14T09:16:22;25.00;;;12.97;;
43435;SDS011;36399;51.444;-2.018;2022-11-14T09:18:48;28.53;;;13.83;;
43435;SDS011;36399;51.444;-2.018;2022-11-14T09:21:14;26.80;;;14.07;;
43435;SDS011;36399;51.444;-2.018;2022-11-14T09:23:40;27.70;;;14.37;;
43435;SDS011;36399;51.444;-2.018;2022-11-14T09:26:06;30.07;;;14.40;;
43435;SDS011;36399;51.444;-2.018;2022-11-14T09:28:34;27.37;;;14.80;;
43435;SDS011;36399;51.444;-2.018;2022-11-14T09:31:03;34.80;;;14.87;;
43435;SDS011;36399;51.444;-2.018;2022-11-14T09:33:31;25.07;;;13.63;;
43435;SDS011;36399;51.444;-2.018;2022-11-14T09:35:58;25.33;;;14.10;;
43435;SDS011;36399;51.444;-2.018;2022-11-14T09:38:25;25.13;;;13.47;;
43435;SDS011;36399;51.444;-2.018;2022-11-14T09:43:37;20.37;;;12.27;;
43435;SDS011;36399;51.444;-2.018;2022-11-14T09:46:21;25.90;;;12.83;;
43435;SDS011;36399;51.444;-2.018;2022-11-14T09:48:50;27.70;;;13.73;;
43435;SDS011;36399;51.444;-2.018;2022-11-14T09:51:27;25.70;;;12.90;;
43435;SDS011;36399;51.444;-2.018;2022-11-14T09:54:17;21.37;;;11.83;;
43435;SDS011;36399;51.444;-2.018;2022-11-14T09:56:47;20.50;;;12.07;;
43435;SDS011;36399;51.444;-2.018;2022-11-14T09:59:13;22.73;;;13.27;;
43435;SDS011;36399;51.444;-2.018;2022-11-14T10:07:30;22.23;;;11.70;;
43435;SDS011;36399;51.444;-2.018;2022-11-14T10:10:15;16.67;;;10.55;;
43435;SDS011;36399;51.444;-2.018;2022-11-14T10:13:44;17.00;;;10.77;;
43435;SDS011;36399;51.444;-2.018;2022-11-14T10:21:32;18.70;;;10.73;;
43435;SDS011;36399;51.444;-2.018;2022-11-14T10:34:55;17.03;;;9.10;;
43435;SDS011;36399;51.444;-2.018;2022-11-14T10:40:48;11.55;;;7.95;;
43435;SDS011;36399;51.444;-2.018;2022-11-14T10:45:53;12.75;;;6.05;;
43435;SDS011;36399;51.444;-2.018;2022-11-14T10:48:46;10.07;;;5.47;;
43435;SDS011;36399;51.444;-2.018;2022-11-14T10:51:27;8.85;;;5.05;;
43435;SDS011;36399;51.444;-2.018;2022-11-14T10:57:12;8.73;;;5.10;;
43435;SDS011;36399;51.444;-2.018;2022-11-14T10:59:41;8.88;;;4.80;;
43435;SDS011;36399;51.444;-2.018;2022-11-14T11:02:07;8.35;;;4.35;;
43435;SDS011;36399;51.444;-2.018;2022-11-14T11:04:35;8.77;;;4.85;;
43435;SDS011;36399;51.444;-2.018;2022-11-14T11:09:38;8.68;;;4.57;;
43435;SDS011;36399;51.444;-2.018;2022-11-14T11:20:37;8.52;;;5.07;;
43435;SDS011;36399;51.444;-2.018;2022-11-14T11:25:41;12.05;;;5.13;;
43435;SDS011;36399;51.444;-2.018;2022-11-14T11:30:57;8.27;;;3.83;;
43435;SDS011;36399;51.444;-2.018;2022-11-14T11:33:31;11.77;;;5.25;;
43435;SDS011;36399;51.444;-2.018;2022-11-14T11:36:02;9.60;;;5.85;;
43435;SDS011;36399;51.444;-2.018;2022-11-14T11:38:30;8.13;;;5.10;;
43435;SDS011;36399;51.444;-2.018;2022-11-14T11:41:31;9.60;;;6.18;;
43435;SDS011;36399;51.444;-2.018;2022-11-14T11:44:00;12.18;;;5.97;;
43435;SDS011;36399;51.444;-2.018;2022-11-14T11:57:44;14.63;;;7.07;;
43435;SDS011;36399;51.444;-2.018;2022-11-14T12:00:16;14.75;;;6.57;;
43435;SDS011;36399;51.444;-2.018;2022-11-14T12:02:49;9.85;;;5.72;;
43435;SDS011;36399;51.444;-2.018;2022-11-14T12:08:36;12.40;;;6.13;;
43435;SDS011;36399;51.444;-2.018;2022-11-14T12:11:04;11.52;;;6.53;;
43435;SDS011;36399;51.444;-2.018;2022-11-14T12:13:42;10.15;;;5.90;;
43435;SDS011;36399;51.444;-2.018;2022-11-14T12:27:28;8.00;;;4.63;;
43435;SDS011;36399;51.444;-2.018;2022-11-14T12:32:48;10.73;;;5.38;;
43435;SDS011;36399;51.444;-2.018;2022-11-14T12:35:25;8.90;;;4.72;;
43435;SDS011;36399;51.444;-2.018;2022-11-14T12:37:56;6.63;;;4.18;;
43435;SDS011;36399;51.444;-2.018;2022-11-14T12:40:34;12.68;;;4.28;;
43435;SDS011;36399;51.444;-2.018;2022-11-14T12:48:37;9.80;;;4.78;;
43435;SDS011;36399;51.444;-2.018;2022-11-14T12:51:05;8.25;;;4.55;;
43435;SDS011;36399;51.444;-2.018;2022-11-14T12:53:50;8.85;;;4.18;;
43435;SDS011;36399;51.444;-2.018;2022-11-14T13:12:35;8.77;;;4.75;;
43435;SDS011;36399;51.444;-2.018;2022-11-14T13:15:23;9.40;;;5.05;;
43435;SDS011;36399;51.444;-2.018;2022-11-14T13:18:20;7.00;;;4.78;;
43435;SDS011;36399;51.444;-2.018;2022-11-14T13:21:18;10.13;;;5.28;;
43435;SDS011;36399;51.444;-2.018;2022-11-14T13:24:05;9.15;;;6.00;;
43435;SDS011;36399;51.444;-2.018;2022-11-14T13:28:58;7.53;;;4.83;;
43435;SDS011;36399;51.444;-2.018;2022-11-14T13:31:35;11.00;;;6.03;;
43435;SDS011;36399;51.444;-2.018;2022-11-14T13:45:29;9.03;;;5.53;;
43435;SDS011;36399;51.444;-2.018;2022-11-14T13:50:50;12.30;;;6.03;;
43435;SDS011;36399;51.444;-2.018;2022-11-14T13:53:24;9.67;;;5.70;;
43435;SDS011;36399;51.444;-2.018;2022-11-14T13:56:00;15.82;;;6.80;;
43435;SDS011;36399;51.444;-2.018;2022-11-14T13:58:41;9.63;;;5.10;;
43435;SDS011;36399;51.444;-2.018;2022-11-14T14:19:51;8.33;;;6.07;;
43435;SDS011;36399;51.444;-2.018;2022-11-14T14:25:26;10.75;;;6.50;;
43435;SDS011;36399;51.444;-2.018;2022-11-14T14:28:14;9.33;;;5.43;;
43435;SDS011;36399;51.444;-2.018;2022-11-14T14:33:40;7.90;;;5.10;;
43435;SDS011;36399;51.444;-2.018;2022-11-14T14:36:22;12.43;;;6.37;;
43435;SDS011;36399;51.444;-2.018;2022-11-14T14:38:50;9.77;;;5.03;;
43435;SDS011;36399;51.444;-2.018;2022-11-14T14:41:39;11.20;;;6.33;;
43435;SDS011;36399;51.444;-2.018;2022-11-14T14:44:10;10.97;;;6.07;;
43435;SDS011;36399;51.444;-2.018;2022-11-14T14:46:44;11.73;;;6.10;;
43435;SDS011;36399;51.444;-2.018;2022-11-14T14:49:10;9.83;;;3.53;;
43435;SDS011;36399;51.444;-2.018;2022-11-14T14:54:58;8.67;;;4.53;;
43435;SDS011;36399;51.444;-2.018;2022-11-14T14:57:27;6.10;;;2.17;;
43435;SDS011;36399;51.444;-2.018;2022-11-14T15:00:04;5.93;;;2.10;;
43435;SDS011;36399;51.444;-2.018;2022-11-14T15:02:33;4.13;;;1.83;;
43435;SDS011;36399;51.444;-2.018;2022-11-14T15:04:59;3.13;;;1.30;;
43435;SDS011;36399;51.444;-2.018;2022-11-14T15:07:26;3.03;;;1.27;;
43435;SDS011;36399;51.444;-2.018;2022-11-14T15:09:58;4.80;;;1.70;;
43435;SDS011;36399;51.444;-2.018;2022-11-14T15:12:26;6.80;;;1.80;;
43435;SDS011;36399;51.444;-2.018;2022-11-14T15:14:55;3.50;;;1.47;;
43435;SDS011;36399;51.444;-2.018;2022-11-14T15:17:23;4.00;;;2.00;;
43435;SDS011;36399;51.444;-2.018;2022-11-14T15:19:53;4.97;;;2.13;;
43435;SDS011;36399;51.444;-2.018;2022-11-14T15:25:04;6.20;;;2.40;;
43435;SDS011;36399;51.444;-2.018;2022-11-14T15:27:31;5.87;;;2.10;;
43435;SDS011;36399;51.444;-2.018;2022-11-14T15:29:59;5.17;;;2.33;;
43435;SDS011;36399;51.444;-2.018;2022-11-14T15:32:27;5.07;;;2.73;;
43435;SDS011;36399;51.444;-2.018;2022-11-14T15:38:06;6.40;;;2.73;;
43435;SDS011;36399;51.444;-2.018;2022-11-14T15:40:46;5.63;;;1.80;;
43435;SDS011;36399;51.444;-2.018;2022-11-14T15:52:12;3.83;;;1.70;;
43435;SDS011;36399;51.444;-2.018;2022-11-14T15:54:42;4.70;;;1.30;;
43435;SDS011;36399;51.444;-2.018;2022-11-14T15:57:10;2.90;;;1.60;;
43435;SDS011;36399;51.444;-2.018;2022-11-14T15:59:38;2.93;;;0.93;;
43435;SDS011;36399;51.444;-2.018;2022-11-14T16:02:12;3.67;;;1.70;;
43435;SDS011;36399;51.444;-2.018;2022-11-14T16:04:42;4.27;;;1.30;;
43435;SDS011;36399;51.444;-2.018;2022-11-14T16:07:11;6.43;;;1.60;;
43435;SDS011;36399;51.444;-2.018;2022-11-14T16:09:37;3.60;;;1.40;;
43435;SDS011;36399;51.444;-2.018;2022-11-14T16:12:04;5.80;;;1.63;;
43435;SDS011;36399;51.444;-2.018;2022-11-14T16:14:30;5.53;;;2.27;;
43435;SDS011;36399;51.444;-2.018;2022-11-14T16:16:56;4.43;;;1.87;;
43435;SDS011;36399;51.444;-2.018;2022-11-14T16:19:22;3.83;;;1.87;;
43435;SDS011;36399;51.444;-2.018;2022-11-14T16:21:48;6.17;;;2.20;;
43435;SDS011;36399;51.444;-2.018;2022-11-14T16:24:21;5.57;;;2.30;;
43435;SDS011;36399;51.444;-2.018;2022-11-14T16:29:14;5.10;;;2.00;;
43435;SDS011;36399;51.444;-2.018;2022-11-14T16:31:40;4.37;;;1.90;;
43435;SDS011;36399;51.444;-2.018;2022-11-14T16:34:08;4.03;;;1.60;;
43435;SDS011;36399;51.444;-2.018;2022-11-14T16:36:43;7.20;;;1.47;;
43435;SDS011;36399;51.444;-2.018;2022-11-14T16:39:10;3.47;;;0.90;;
43435;SDS011;36399;51.444;-2.018;2022-11-14T16:41:38;5.77;;;1.00;;
43435;SDS011;36399;51.444;-2.018;2022-11-14T16:44:05;3.97;;;1.37;;
43435;SDS011;36399;51.444;-2.018;2022-11-14T16:46:31;2.90;;;1.07;;
43435;SDS011;36399;51.444;-2.018;2022-11-14T16:48:57;1.93;;;0.90;;
43435;SDS011;36399;51.444;-2.018;2022-11-14T16:51:24;4.40;;;1.80;;
43435;SDS011;36399;51.444;-2.018;2022-11-14T16:53:53;6.00;;;1.50;;
43435;SDS011;36399;51.444;-2.018;2022-11-14T16:56:19;4.23;;;1.00;;
43435;SDS011;36399;51.444;-2.018;2022-11-14T16:58:45;4.97;;;1.30;;
43435;SDS011;36399;51.444;-2.018;2022-11-14T17:01:13;9.43;;;1.47;;
43435;SDS011;36399;51.444;-2.018;2022-11-14T17:03:40;3.73;;;0.90;;
43435;SDS011;36399;51.444;-2.018;2022-11-14T17:06:07;3.27;;;0.90;;
43435;SDS011;36399;51.444;-2.018;2022-11-14T17:08:35;3.80;;;1.20;;
43435;SDS011;36399;51.444;-2.018;2022-11-14T17:11:05;4.70;;;0.73;;
43435;SDS011;36399;51.444;-2.018;2022-11-14T17:13:33;3.07;;;1.00;;